createdAt,value
2022-09-07T00:01:19.455Z,100734.55
2022-09-07T00:03:47.900Z,100739.46
2022-09-07T00:06:16.178Z,100733.66
2022-09-07T00:08:44.597Z,100726.10
2022-09-07T00:11:16.212Z,100725.76
2022-09-07T00:13:47.013Z,100720.30
2022-09-07T00:16:18.834Z,100716.27
2022-09-07T00:18:48.092Z,100716.09
2022-09-07T00:21:18.160Z,100715.56
2022-09-07T00:23:49.292Z,100711.88
2022-09-07T00:26:21.261Z,100711.53
2022-09-07T00:28:50.409Z,100710.83
2022-09-07T00:31:21.534Z,100716.80
2022-09-07T00:33:51.454Z,100721.55
2022-09-07T00:36:21.366Z,100722.42
2022-09-07T00:38:49.536Z,100717.15
2022-09-07T00:41:19.667Z,100712.58
2022-09-07T00:43:50.734Z,100707.49
2022-09-07T00:46:22.722Z,100705.21
2022-09-07T00:49:08.357Z,100698.89
2022-09-07T00:52:00.084Z,100699.94
2022-09-07T00:54:36.662Z,100696.42
2022-09-07T00:57:05.974Z,100698.52
2022-09-07T00:59:45.216Z,100694.84
2022-09-07T01:02:15.940Z,100695.71
2022-09-07T01:04:48.578Z,100701.17
2022-09-07T01:07:17.508Z,100701.70
2022-09-07T01:09:47.472Z,100703.27
2022-09-07T01:12:15.729Z,100700.28
2022-09-07T01:14:47.522Z,100701.86
2022-09-07T01:17:26.274Z,100699.94
2022-09-07T01:20:20.978Z,100698.52
2022-09-07T01:23:30.587Z,100700.45
2022-09-07T01:26:05.071Z,100702.73
2022-09-07T01:28:35.611Z,100699.23
2022-09-07T01:31:13.927Z,100699.58
2022-09-07T01:33:42.265Z,100691.67
2022-09-07T01:36:34.131Z,100691.15
2022-09-07T01:39:05.040Z,100685.69
2022-09-07T01:42:07.276Z,100684.99
2022-09-07T01:44:55.448Z,100681.48
2022-09-07T01:47:27.513Z,100677.27
2022-09-07T01:50:05.362Z,100675.34
2022-09-07T01:52:43.594Z,100669.73
2022-09-07T01:55:50.122Z,100668.31
2022-09-07T01:58:26.933Z,100669.88
2022-09-07T02:01:02.053Z,100672.52
2022-09-07T02:03:42.589Z,100675.34
2022-09-07T02:06:27.383Z,100669.36
2022-09-07T02:09:07.635Z,100679.90
2022-09-07T02:11:39.758Z,100676.73
2022-09-07T02:14:31.346Z,100678.31
2022-09-07T02:17:11.229Z,100678.66
2022-09-07T02:19:45.398Z,100683.92
2022-09-07T02:22:20.441Z,100688.85
2022-09-07T02:24:53.200Z,100684.27
2022-09-07T02:27:50.384Z,100686.19
2022-09-07T02:30:18.810Z,100684.79
2022-09-07T02:32:47.119Z,100683.21
2022-09-07T02:35:15.735Z,100676.89
2022-09-07T02:37:45.721Z,100672.67
2022-09-07T02:40:14.988Z,100672.13
2022-09-07T02:42:47.575Z,100675.29
2022-09-07T02:45:17.041Z,100676.70
2022-09-07T02:48:15.004Z,100675.98
2022-09-07T02:51:24.162Z,100669.84
2022-09-07T02:54:14.169Z,100666.15
2022-09-07T02:57:17.999Z,100663.85
2022-09-07T03:00:07.561Z,100656.47
2022-09-07T03:02:45.683Z,100660.86
2022-09-07T03:05:42.865Z,100658.04
2022-09-07T03:08:16.226Z,100660.14
2022-09-07T03:10:45.297Z,100669.08
2022-09-07T03:13:28.205Z,100681.02
2022-09-07T03:15:57.732Z,100680.49
2022-09-07T03:18:27.534Z,100678.04
2022-09-07T03:20:56.055Z,100667.16
2022-09-07T03:23:25.015Z,100669.09
2022-09-07T03:25:53.303Z,100671.38
2022-09-07T03:28:21.580Z,100659.09
2022-09-07T03:30:50.231Z,100644.02
2022-09-07T03:33:18.531Z,100630.31
2022-09-07T03:35:58.327Z,100622.78
2022-09-07T03:38:26.658Z,100629.08
2022-09-07T03:41:02.444Z,100633.98
2022-09-07T03:43:31.313Z,100635.20
2022-09-07T03:46:05.930Z,100630.11
2022-09-07T03:48:35.443Z,100627.81
2022-09-07T03:51:06.734Z,100630.23
2022-09-07T03:53:39.878Z,100627.94
2022-09-07T03:56:11.269Z,100627.59
2022-09-07T03:58:39.715Z,100627.22
2022-09-07T04:01:11.582Z,100634.92
2022-09-07T04:03:40.021Z,100632.64
2022-09-07T04:06:08.749Z,100630.36
2022-09-07T04:08:38.324Z,100634.91
2022-09-07T04:11:07.450Z,100640.15
2022-09-07T04:13:36.842Z,100643.11
2022-09-07T04:16:12.566Z,100646.27
2022-09-07T04:18:41.753Z,100644.68
2022-09-07T04:21:10.542Z,100647.48
2022-09-07T04:23:43.821Z,100641.71
2022-09-07T04:26:21.657Z,100647.70
2022-09-07T04:28:51.117Z,100647.34
2022-09-07T04:31:20.369Z,100646.29
2022-09-07T04:33:49.997Z,100646.98
2022-09-07T04:36:19.998Z,100642.43
2022-09-07T04:38:57.977Z,100634.20
2022-09-07T04:41:28.192Z,100631.56
2022-09-07T04:43:59.033Z,100628.23
2022-09-07T04:46:30.246Z,100624.01
2022-09-07T04:49:00.840Z,100618.73
2022-09-07T04:51:30.909Z,100622.59
2022-09-07T04:54:02.030Z,100622.59
2022-09-07T04:56:32.131Z,100618.37
2022-09-07T04:59:02.212Z,100612.77
2022-09-07T05:01:31.396Z,100610.30
2022-09-07T05:04:01.447Z,100613.28
2022-09-07T05:06:29.995Z,100611.87
2022-09-07T05:08:58.965Z,100608.01
2022-09-07T05:11:29.717Z,100611.89
2022-09-07T05:14:00.005Z,100615.39
2022-09-07T05:16:28.517Z,100613.30
2022-09-07T05:19:02.253Z,100606.98
2022-09-07T05:21:33.940Z,100608.05
2022-09-07T05:24:03.150Z,100601.75
2022-09-07T05:26:34.135Z,100603.33
2022-09-07T05:31:54.936Z,100607.91
2022-09-07T05:34:31.576Z,100607.90
2022-09-07T05:37:01.387Z,100611.08
2022-09-07T05:39:31.061Z,100608.61
2022-09-07T05:41:59.434Z,100610.73
2022-09-07T05:47:11.307Z,100599.70
2022-09-07T05:49:39.725Z,100599.85
2022-09-07T05:52:08.259Z,100600.92
2022-09-07T05:54:38.345Z,100609.34
2022-09-07T05:57:13.689Z,100606.89
2022-09-07T05:59:42.142Z,100610.23
2022-09-07T06:02:17.726Z,100614.11
2022-09-07T06:04:46.127Z,100618.36
2022-09-07T06:07:22.965Z,100616.08
2022-09-07T06:12:41.701Z,100610.85
2022-09-07T06:15:11.835Z,100608.94
2022-09-07T06:17:40.444Z,100607.54
2022-09-07T06:20:09.486Z,100609.99
2022-09-07T06:22:38.368Z,100612.81
2022-09-07T06:25:06.984Z,100609.31
2022-09-07T06:27:35.423Z,100608.79
2022-09-07T06:30:04.752Z,100607.56
2022-09-07T06:32:44.635Z,100603.52
2022-09-07T06:35:14.999Z,100602.30
2022-09-07T06:37:43.184Z,100601.77
2022-09-07T06:40:12.409Z,100601.05
2022-09-07T06:42:40.866Z,100601.77
2022-09-07T06:45:11.631Z,100602.27
2022-09-07T06:47:41.111Z,100601.74
2022-09-07T06:50:10.303Z,100600.49
2022-09-07T06:55:31.124Z,100598.69
2022-09-07T06:57:59.370Z,100599.55
2022-09-07T07:00:27.743Z,100592.87
2022-09-07T07:02:56.289Z,100587.56
2022-09-07T07:05:24.662Z,100587.19
2022-09-07T07:07:53.016Z,100596.81
2022-09-07T07:10:24.752Z,100602.03
2022-09-07T07:12:57.825Z,100601.98
2022-09-07T07:15:28.416Z,100602.81
2022-09-07T07:18:02.556Z,100598.53
2022-09-07T07:20:39.864Z,100597.77
2022-09-07T07:23:08.793Z,100594.01
2022-09-07T07:25:37.553Z,100590.41
2022-09-07T07:30:56.440Z,100595.70
2022-09-07T07:33:25.415Z,100595.42
2022-09-07T07:35:53.692Z,100597.78
2022-09-07T07:44:00.621Z,100592.38
2022-09-07T07:46:30.484Z,100597.59
2022-09-07T07:48:59.194Z,100588.52
2022-09-07T07:51:27.605Z,100585.42
2022-09-07T07:53:56.828Z,100580.41
2022-09-07T07:56:25.370Z,100573.08
2022-09-07T07:58:53.749Z,100571.58
2022-09-07T08:01:22.140Z,100576.60
2022-09-07T08:03:51.064Z,100574.20
2022-09-07T08:06:21.853Z,100567.94
2022-09-07T08:08:50.137Z,100569.23
2022-09-07T08:11:20.908Z,100569.81
2022-09-07T08:13:51.177Z,100574.83
2022-09-07T08:16:19.811Z,100577.59
2022-09-07T08:18:49.372Z,100577.14
2022-09-07T08:21:17.799Z,100577.21
2022-09-07T08:23:46.116Z,100575.89
2022-09-07T08:26:14.371Z,100569.79
2022-09-07T08:28:45.641Z,100569.86
2022-09-07T08:31:16.383Z,100567.84
2022-09-07T08:33:45.744Z,100565.44
2022-09-07T08:36:19.391Z,100564.98
2022-09-07T08:38:48.434Z,100564.69
2022-09-07T08:41:46.651Z,100567.55
2022-09-07T08:44:29.997Z,100567.73
2022-09-07T08:47:07.078Z,100571.59
2022-09-07T08:49:47.386Z,100568.21
2022-09-07T08:52:27.840Z,100565.76
2022-09-07T08:55:28.152Z,100563.84
2022-09-07T08:58:02.192Z,100569.52
2022-09-07T09:00:31.679Z,100569.03
2022-09-07T09:05:53.802Z,100560.06
2022-09-07T09:08:48.174Z,100558.90
2022-09-07T09:11:27.564Z,100558.28
2022-09-07T09:13:55.820Z,100561.23
2022-09-07T09:16:27.063Z,100566.98
2022-09-07T09:18:55.260Z,100571.13
2022-09-07T09:21:23.683Z,100569.41
2022-09-07T09:23:55.407Z,100562.60
2022-09-07T09:26:26.165Z,100560.38
2022-09-07T09:28:55.366Z,100561.69
2022-09-07T09:31:36.277Z,100559.84
2022-09-07T09:34:15.161Z,100556.02
2022-09-07T09:36:56.419Z,100548.55
2022-09-07T09:39:31.093Z,100547.29
2022-09-07T09:42:15.822Z,100549.19
2022-09-07T09:44:45.707Z,100547.35
2022-09-07T09:47:40.749Z,100549.06
2022-09-07T09:53:49.225Z,100543.44
2022-09-07T09:56:18.329Z,100542.13
2022-09-07T10:01:36.866Z,100537.40
2022-09-07T10:04:24.775Z,100538.15
2022-09-07T10:07:22.760Z,100545.52
2022-09-07T10:09:53.263Z,100548.27
2022-09-07T10:12:34.778Z,100538.16
2022-09-07T10:15:07.023Z,100539.55
2022-09-07T10:17:43.861Z,100538.33
2022-09-07T10:20:15.996Z,100543.11
2022-09-07T10:22:51.304Z,100540.69
2022-09-07T10:25:38.101Z,100537.84
2022-09-07T10:28:13.024Z,100529.47
2022-09-07T10:31:02.572Z,100524.73
2022-09-07T10:37:22.150Z,100514.38
2022-09-07T10:40:10.076Z,100511.02
2022-09-07T10:45:45.786Z,100505.14
2022-09-07T10:48:20.872Z,100504.89
2022-09-07T10:50:57.400Z,100501.02
2022-09-07T10:53:42.066Z,100504.92
2022-09-07T10:56:15.626Z,100493.12
2022-09-07T10:59:03.059Z,100498.02
2022-09-07T11:01:40.878Z,100489.39
2022-09-07T11:04:37.228Z,100489.14
2022-09-07T11:07:15.901Z,100489.43
2022-09-07T11:10:30.241Z,100494.41
2022-09-07T11:13:04.907Z,100485.44
2022-09-07T11:15:43.174Z,100483.99
2022-09-07T11:18:41.349Z,100487.69
2022-09-07T11:21:56.271Z,100482.55
2022-09-07T11:24:19.674Z,100486.52
2022-09-07T11:27:14.500Z,100491.24
2022-09-07T11:29:55.486Z,100478.86
2022-09-07T11:32:31.557Z,100480.00
2022-09-07T11:35:25.253Z,100471.55
2022-09-07T11:37:59.684Z,100473.34
2022-09-07T11:40:30.864Z,100479.25
2022-09-07T11:43:22.741Z,100479.73
2022-09-07T11:46:21.466Z,100473.30
2022-09-07T11:48:55.001Z,100471.09
2022-09-07T11:51:53.731Z,100471.94
2022-09-07T11:54:42.480Z,100474.70
2022-09-07T11:57:46.394Z,100480.21
2022-09-07T12:00:21.893Z,100466.06
2022-09-07T12:03:04.582Z,100466.15
2022-09-07T12:05:44.819Z,100458.88
2022-09-07T12:08:30.009Z,100458.63
2022-09-07T12:11:10.328Z,100454.85
2022-09-07T12:13:57.157Z,100459.20
2022-09-07T12:17:02.243Z,100453.39
2022-09-07T12:19:30.832Z,100457.45
2022-09-07T12:22:00.051Z,100451.83
2022-09-07T12:24:43.425Z,100441.81
2022-09-07T12:27:20.628Z,100442.38
2022-09-07T12:30:09.862Z,100441.83
2022-09-07T12:32:55.826Z,100431.29
2022-09-07T12:35:31.728Z,100427.33
2022-09-07T12:38:01.735Z,100421.98
2022-09-07T12:40:30.002Z,100415.94
2022-09-07T12:43:13.295Z,100414.30
2022-09-07T12:45:42.216Z,100407.94
2022-09-07T12:48:16.263Z,100406.80
2022-09-07T12:51:12.360Z,100406.13
2022-09-07T12:54:08.699Z,100409.72
2022-09-07T12:56:43.119Z,100412.88
2022-09-07T12:59:32.852Z,100411.70
2022-09-07T13:02:27.919Z,100412.86
2022-09-07T13:05:34.880Z,100406.66
2022-09-07T13:08:40.623Z,100404.04
2022-09-07T13:11:38.341Z,100400.27
2022-09-07T13:14:17.362Z,100405.42
2022-09-07T13:19:52.067Z,100404.48
2022-09-07T13:22:32.392Z,100399.73
2022-09-07T13:25:27.308Z,100393.43
2022-09-07T13:28:14.224Z,100392.11
2022-09-07T13:31:01.194Z,100393.86
2022-09-07T13:33:29.782Z,100400.98
2022-09-07T13:36:40.381Z,100397.50
2022-09-07T13:39:15.355Z,100397.41
2022-09-07T13:41:50.541Z,100395.11
2022-09-07T13:44:39.237Z,100395.30
2022-09-07T13:47:35.002Z,100391.54
2022-09-07T13:50:12.258Z,100392.26
2022-09-07T13:53:12.396Z,100391.05
2022-09-07T13:56:15.820Z,100388.23
2022-09-07T13:58:49.908Z,100385.59
2022-09-07T14:01:29.140Z,100389.13
2022-09-07T14:04:07.804Z,100382.17
2022-09-07T14:06:38.085Z,100378.98
2022-09-07T14:09:13.632Z,100370.88
2022-09-07T14:11:46.423Z,100357.58
2022-09-07T14:14:33.353Z,100356.98
2022-09-07T14:17:01.931Z,100359.05
2022-09-07T14:19:49.526Z,100359.91
2022-09-07T14:22:26.250Z,100361.10
2022-09-07T14:24:59.735Z,100353.81
2022-09-07T14:27:42.443Z,100350.48
2022-09-07T14:30:23.436Z,100349.54
2022-09-07T14:33:20.434Z,100348.56
2022-09-07T14:35:49.986Z,100350.40
2022-09-07T14:41:15.698Z,100353.71
2022-09-07T14:43:55.507Z,100348.19
2022-09-07T14:46:26.136Z,100341.46
2022-09-07T14:48:59.880Z,100342.39
2022-09-07T14:51:36.174Z,100344.35
2022-09-07T14:54:07.188Z,100346.50
2022-09-07T14:56:41.094Z,100347.37
2022-09-07T14:59:34.960Z,100349.79
2022-09-07T15:02:18.589Z,100344.61
2022-09-07T15:05:08.212Z,100345.20
2022-09-07T15:07:47.168Z,100343.48
2022-09-07T15:10:16.658Z,100341.91
2022-09-07T15:12:44.989Z,100338.35
2022-09-07T15:15:21.860Z,100332.09
2022-09-07T15:17:51.828Z,100333.40
2022-09-07T15:20:37.873Z,100336.80
2022-09-07T15:23:17.110Z,100335.35
2022-09-07T15:25:51.871Z,100334.77
2022-09-07T15:34:02.375Z,100332.06
2022-09-07T15:36:31.948Z,100334.52
2022-09-07T15:39:01.099Z,100331.14
2022-09-07T15:41:30.311Z,100336.45
2022-09-07T15:43:59.081Z,100333.53
2022-09-07T15:46:27.622Z,100337.16
2022-09-07T15:48:56.394Z,100337.05
2022-09-07T15:54:14.844Z,100336.19
2022-09-07T15:57:47.661Z,100336.84
2022-09-07T15:59:32.457Z,100342.66
2022-09-07T16:02:00.995Z,100338.66
2022-09-07T16:04:29.662Z,100334.72
2022-09-07T16:07:01.997Z,100330.94
2022-09-07T16:09:30.320Z,100327.67
2022-09-07T16:12:59.931Z,100325.81
2022-09-07T16:14:47.344Z,100324.71
2022-09-07T16:20:04.678Z,100321.73
2022-09-07T16:25:22.873Z,100327.98
2022-09-07T16:27:51.173Z,100329.86
2022-09-07T16:30:19.385Z,100333.36
2022-09-07T16:32:48.290Z,100334.95
2022-09-07T16:35:17.509Z,100334.27
2022-09-07T16:40:34.234Z,100330.74
2022-09-07T16:43:02.449Z,100324.92
2022-09-07T16:48:20.229Z,100315.04
2022-09-07T16:51:00.448Z,100316.09
2022-09-07T16:53:34.662Z,100311.42
2022-09-07T16:56:05.296Z,100310.66
2022-09-07T16:58:36.421Z,100320.77
2022-09-07T17:01:06.945Z,100318.78
2022-09-07T17:03:36.876Z,100316.11
2022-09-07T17:06:07.803Z,100319.85
2022-09-07T17:08:37.832Z,100320.92
2022-09-07T17:11:15.949Z,100316.30
2022-09-07T17:13:45.407Z,100310.09
2022-09-07T17:16:15.374Z,100308.52
2022-09-07T17:21:33.982Z,100304.61
2022-09-07T17:24:04.207Z,100305.48
2022-09-07T17:26:33.203Z,100302.19
2022-09-07T17:29:01.567Z,100301.90
2022-09-07T17:34:21.609Z,100303.91
2022-09-07T17:36:51.338Z,100298.73
2022-09-07T17:39:20.104Z,100292.64
2022-09-07T17:41:52.695Z,100296.00
2022-09-07T17:44:23.461Z,100298.91
2022-09-07T17:46:52.049Z,100302.83
2022-09-07T17:49:20.346Z,100304.06
2022-09-07T17:51:48.808Z,100298.61
2022-09-07T17:54:17.859Z,100303.67
2022-09-07T17:56:46.507Z,100299.20
2022-09-07T18:02:03.557Z,100305.15
2022-09-07T18:04:31.952Z,100305.29
2022-09-07T18:07:00.249Z,100305.50
2022-09-07T18:09:28.801Z,100305.30
2022-09-07T18:11:57.277Z,100303.86
2022-09-07T18:14:25.641Z,100304.83
2022-09-07T18:16:54.153Z,100303.30
2022-09-07T18:19:24.909Z,100300.56
2022-09-07T18:21:58.467Z,100304.45
2022-09-07T18:24:27.975Z,100302.48
2022-09-07T18:27:07.848Z,100302.98
2022-09-07T18:29:36.488Z,100305.58
2022-09-07T18:32:09.364Z,100305.48
2022-09-07T18:34:41.157Z,100299.70
2022-09-07T18:37:12.312Z,100301.73
2022-09-07T18:39:41.336Z,100306.73
2022-09-07T18:42:10.275Z,100305.17
2022-09-07T18:47:29.222Z,100315.79
2022-09-07T18:49:58.692Z,100321.98
2022-09-07T18:55:16.466Z,100321.56
2022-09-07T18:57:45.170Z,100332.61
2022-09-07T19:00:14.601Z,100337.10
2022-09-07T19:02:42.844Z,100342.16
2022-09-07T19:08:00.031Z,100350.33
2022-09-07T19:10:28.303Z,100357.30
2022-09-07T19:12:56.872Z,100356.31
2022-09-07T19:15:25.670Z,100361.88
2022-09-07T19:17:54.102Z,100359.95
2022-09-07T19:20:22.455Z,100358.59
2022-09-07T19:22:50.950Z,100356.86
2022-09-07T19:25:19.584Z,100353.02
2022-09-07T19:27:48.051Z,100346.02
2022-09-07T19:30:18.043Z,100344.69
2022-09-07T19:32:46.434Z,100347.41
2022-09-07T19:35:17.942Z,100350.17
2022-09-07T19:37:48.447Z,100351.14
2022-09-07T19:40:19.267Z,100350.29
2022-09-07T19:42:48.197Z,100350.20
2022-09-07T19:45:16.768Z,100345.71
2022-09-07T19:47:45.078Z,100345.94
2022-09-07T19:50:13.414Z,100352.89
2022-09-07T19:52:41.971Z,100353.30
2022-09-07T19:55:10.361Z,100358.83
2022-09-07T19:57:38.729Z,100358.89
2022-09-07T20:00:07.914Z,100352.20
2022-09-07T20:02:39.090Z,100354.17
2022-09-07T20:05:10.150Z,100355.45
2022-09-07T20:07:52.486Z,100350.17
2022-09-07T20:10:20.883Z,100356.41
2022-09-07T20:12:49.349Z,100351.52
2022-09-07T20:15:17.677Z,100353.18
2022-09-07T20:17:47.520Z,100346.85
2022-09-07T20:20:18.353Z,100342.14
2022-09-07T20:22:47.299Z,100339.20
2022-09-07T20:25:15.733Z,100332.27
2022-09-07T20:27:44.697Z,100341.90
2022-09-07T20:30:13.440Z,100346.58
2022-09-07T20:32:44.406Z,100355.27
2022-09-07T20:35:14.092Z,100348.41
2022-09-07T20:37:44.149Z,100353.77
2022-09-07T20:40:12.534Z,100347.81
2022-09-07T20:42:40.941Z,100348.92
2022-09-07T20:45:09.769Z,100341.55
2022-09-07T20:47:38.193Z,100342.10
2022-09-07T20:50:06.862Z,100342.50
2022-09-07T20:52:35.157Z,100342.19
2022-09-07T20:55:03.655Z,100338.14
2022-09-07T20:57:31.999Z,100339.24
2022-09-07T21:00:00.271Z,100339.28
2022-09-07T21:02:28.556Z,100337.20
2022-09-07T21:04:56.934Z,100338.14
2022-09-07T21:07:25.204Z,100340.45
2022-09-07T21:09:53.435Z,100340.14
2022-09-07T21:12:24.519Z,100337.00
2022-09-07T21:14:52.856Z,100337.39
2022-09-07T21:17:21.285Z,100334.09
2022-09-07T21:19:49.591Z,100330.45
2022-09-07T21:22:17.969Z,100327.34
2022-09-07T21:24:46.274Z,100326.70
2022-09-07T21:27:14.579Z,100327.11
2022-09-07T21:29:42.900Z,100325.74
2022-09-07T21:32:11.104Z,100319.59
2022-09-07T21:34:39.409Z,100320.66
2022-09-07T21:37:07.699Z,100317.13
2022-09-07T21:39:36.010Z,100313.27
2022-09-07T21:42:04.735Z,100310.12
2022-09-07T21:44:33.043Z,100312.98
2022-09-07T21:47:01.312Z,100311.02
2022-09-07T21:49:29.696Z,100310.89
2022-09-07T21:51:57.982Z,100311.28
2022-09-07T21:54:26.249Z,100319.81
2022-09-07T21:56:54.927Z,100321.98
2022-09-07T21:59:23.269Z,100323.24
2022-09-07T22:01:51.537Z,100324.33
2022-09-07T22:04:19.916Z,100324.75
2022-09-07T22:06:48.306Z,100321.30
2022-09-07T22:09:16.841Z,100318.20
2022-09-07T22:11:46.141Z,100323.94
2022-09-07T22:14:15.954Z,100327.88
2022-09-07T22:16:44.498Z,100325.52
2022-09-07T22:19:13.258Z,100322.79
2022-09-07T22:21:41.589Z,100318.29
2022-09-07T22:24:11.868Z,100315.55
2022-09-07T22:26:40.119Z,100320.44
2022-09-07T22:29:11.842Z,100324.41
2022-09-07T22:31:41.543Z,100326.09
2022-09-07T22:34:10.707Z,100325.07
2022-09-07T22:36:42.256Z,100331.45
2022-09-07T22:39:17.088Z,100332.04
2022-09-07T22:41:47.437Z,100331.77
2022-09-07T22:44:18.504Z,100334.66
2022-09-07T22:46:48.356Z,100330.31
2022-09-07T22:49:17.731Z,100328.64
2022-09-07T22:51:46.423Z,100319.55
2022-09-07T22:54:14.865Z,100318.58
2022-09-07T22:56:43.395Z,100313.88
2022-09-07T22:59:12.909Z,100314.98
2022-09-07T23:01:41.909Z,100312.54
2022-09-07T23:04:11.340Z,100310.25
2022-09-07T23:06:42.068Z,100307.63
2022-09-07T23:09:14.086Z,100302.35
2022-09-07T23:11:43.404Z,100301.72
2022-09-07T23:14:15.352Z,100306.70
2022-09-07T23:16:44.684Z,100308.30
2022-09-07T23:19:14.276Z,100311.30
2022-09-07T23:21:43.443Z,100308.89
2022-09-07T23:24:13.640Z,100304.98
2022-09-07T23:26:42.695Z,100310.09
2022-09-07T23:29:12.978Z,100307.36
2022-09-07T23:31:42.188Z,100305.32
2022-09-07T23:34:10.474Z,100307.30
2022-09-07T23:36:38.977Z,100305.56
2022-09-07T23:39:07.649Z,100308.23
2022-09-07T23:41:35.805Z,100306.49
2022-09-07T23:44:04.094Z,100311.26
2022-09-07T23:46:32.407Z,100301.43
2022-09-07T23:49:00.678Z,100298.14
2022-09-07T23:51:28.887Z,100298.21
2022-09-07T23:53:57.739Z,100297.08
2022-09-07T23:56:26.398Z,100294.12
2022-09-07T23:58:54.657Z,100296.80
